createdAt,value
2018-10-05T07:49:27.959Z,6
2018-10-05T07:54:30.404Z,8
2018-10-05T07:59:32.853Z,7
2018-10-05T08:04:35.424Z,7
2018-10-05T08:09:37.861Z,8
2018-10-05T08:14:40.267Z,8
2018-10-05T08:19:42.685Z,7
2018-10-05T08:24:45.133Z,8
2018-10-05T08:29:47.593Z,9
2018-10-05T08:34:50.159Z,11
2018-10-05T08:39:52.602Z,9
2018-10-05T08:44:54.969Z,10
2018-10-05T08:49:57.472Z,12
2018-10-05T08:54:59.912Z,6
2018-10-05T09:00:02.456Z,8
2018-10-05T09:05:04.810Z,6
2018-10-05T09:10:07.294Z,12
2018-10-05T09:15:09.779Z,8
2018-10-05T09:20:12.186Z,10
2018-10-05T09:25:14.636Z,9
2018-10-05T09:30:17.129Z,5
2018-10-05T09:35:19.822Z,6
2018-10-05T09:40:22.012Z,5
2018-10-05T09:45:24.586Z,5
2018-10-05T09:50:27.039Z,9
2018-10-05T09:55:29.396Z,4
2018-10-05T10:00:31.889Z,7
2018-10-05T10:05:34.329Z,6
2018-10-05T10:10:36.792Z,5
2018-10-05T10:15:39.256Z,7
2018-10-05T10:20:41.681Z,3
2018-10-05T10:25:44.150Z,5
2018-10-05T10:30:46.596Z,7
2018-10-05T10:35:49.069Z,4
2018-10-05T10:40:51.537Z,5
2018-10-05T10:45:53.960Z,4
2018-10-05T10:50:56.443Z,6
2018-10-05T10:55:59.168Z,5
2018-10-05T11:01:01.351Z,6
2018-10-05T11:06:03.804Z,4
2018-10-05T11:11:06.297Z,3
2018-10-05T11:16:08.716Z,5
2018-10-05T11:21:11.271Z,5
2018-10-05T11:26:13.721Z,4
2018-10-05T11:31:16.112Z,3
2018-10-05T11:41:21.021Z,4
2018-10-05T11:46:23.520Z,7
2018-10-05T11:51:25.925Z,5
2018-10-05T11:56:28.413Z,5
2018-10-05T12:01:30.860Z,4
2018-10-05T12:06:33.310Z,8
2018-10-05T12:11:35.755Z,6
2018-10-05T12:16:38.251Z,4
2018-10-05T12:21:40.761Z,3
2018-10-05T12:26:43.242Z,5
2018-10-05T12:31:45.586Z,3
2018-10-05T12:36:48.046Z,6
2018-10-05T12:41:50.554Z,7
2018-10-05T12:46:52.955Z,5
2018-10-05T12:51:55.420Z,5
2018-10-05T12:56:57.875Z,3
2018-10-05T13:02:00.343Z,11
2018-10-05T13:07:02.802Z,5
2018-10-05T13:12:05.336Z,6
2018-10-05T13:17:07.726Z,7
2018-10-05T13:22:10.176Z,10
2018-10-05T13:27:12.626Z,5
2018-10-05T13:32:15.088Z,7
2018-10-05T13:37:17.629Z,5
2018-10-05T13:42:20.003Z,6
2018-10-05T13:47:22.465Z,7
2018-10-05T13:52:24.918Z,5
2018-10-05T13:57:27.388Z,8
2018-10-05T14:02:29.898Z,7
2018-10-05T14:07:32.309Z,7
2018-10-05T14:12:34.761Z,8
2018-10-05T14:17:37.206Z,8
2018-10-05T14:22:39.685Z,8
2018-10-05T14:27:42.137Z,6
2018-10-05T14:32:44.597Z,8
2018-10-05T14:37:47.055Z,9
2018-10-05T14:42:49.508Z,9
2018-10-05T14:47:51.955Z,7
2018-10-05T14:52:54.418Z,9
2018-10-05T14:57:56.971Z,8
2018-10-05T15:02:59.362Z,12
2018-10-05T15:08:01.829Z,12
2018-10-05T15:13:04.370Z,13
2018-10-05T15:18:06.718Z,10
2018-10-05T15:23:09.171Z,10
2018-10-05T15:28:11.647Z,10
2018-10-05T15:33:14.105Z,15
2018-10-05T15:38:16.534Z,14
2018-10-05T15:43:19.002Z,15
2018-10-05T15:48:21.541Z,10
2018-10-05T15:53:24.022Z,12
2018-10-05T15:58:26.369Z,6
2018-10-05T16:03:28.834Z,8
2018-10-05T16:08:31.298Z,12
2018-10-05T16:13:33.754Z,10
2018-10-05T16:18:36.232Z,8
2018-10-05T16:23:38.722Z,9
2018-10-05T16:28:41.129Z,9
2018-10-05T16:33:43.596Z,16
2018-10-05T16:38:46.069Z,6
2018-10-05T16:43:48.564Z,8
2018-10-05T16:48:50.981Z,11
2018-10-05T16:53:53.416Z,12
2018-10-05T16:58:55.944Z,10
2018-10-05T17:03:58.409Z,11
2018-10-05T17:09:00.796Z,15
2018-10-05T17:14:03.290Z,9
2018-10-05T17:19:05.706Z,13
2018-10-05T17:24:08.177Z,15
2018-10-05T17:29:10.659Z,15
2018-10-05T17:34:13.089Z,14
2018-10-05T17:39:15.554Z,13
2018-10-05T17:44:17.986Z,14
2018-10-05T17:49:20.460Z,13
2018-10-05T17:54:22.910Z,13
2018-10-05T17:59:25.373Z,16
2018-10-05T18:04:27.822Z,13
2018-10-05T18:09:30.281Z,16
2018-10-05T18:14:32.749Z,17
2018-10-05T18:19:35.261Z,22
2018-10-05T18:24:37.694Z,16
2018-10-05T18:29:40.148Z,18
2018-10-05T18:34:42.590Z,16
2018-10-05T18:39:45.035Z,14
2018-10-05T18:44:47.494Z,15
2018-10-05T18:49:49.942Z,14
2018-10-05T18:54:52.401Z,19
2018-10-05T18:59:54.866Z,12
2018-10-05T19:04:57.309Z,13
2018-10-05T19:09:59.799Z,14
2018-10-05T19:15:02.254Z,13
2018-10-05T19:20:04.714Z,23
2018-10-05T19:25:07.176Z,20
2018-10-05T19:30:09.623Z,19
2018-10-05T19:35:12.065Z,17
2018-10-05T19:40:14.532Z,15
2018-10-05T19:45:16.988Z,18
2018-10-05T19:50:19.429Z,19
2018-10-05T19:55:21.987Z,18
2018-10-05T20:00:24.403Z,20
2018-10-05T20:05:26.803Z,18
2018-10-05T20:10:29.258Z,14
2018-10-05T20:15:31.753Z,15
2018-10-05T20:20:34.239Z,17
2018-10-05T20:25:36.644Z,15
2018-10-05T20:30:39.132Z,14
2018-10-05T20:35:41.608Z,13
2018-10-05T20:40:44.009Z,9
2018-10-05T20:45:46.478Z,10
2018-10-05T20:50:48.928Z,8
2018-10-05T20:55:51.380Z,12
2018-10-05T21:00:53.852Z,9
2018-10-05T21:05:56.295Z,10
2018-10-05T21:10:58.754Z,15
2018-10-05T21:16:01.218Z,10
2018-10-05T21:21:03.679Z,9
2018-10-05T21:26:06.131Z,19
2018-10-05T21:31:08.598Z,13
2018-10-05T21:36:11.050Z,13
2018-10-05T21:41:13.506Z,16
2018-10-05T21:46:15.975Z,10
2018-10-05T21:51:18.444Z,15
2018-10-05T21:56:20.892Z,9
2018-10-05T22:01:23.364Z,8
2018-10-05T22:06:25.802Z,9
2018-10-05T22:11:28.244Z,10
2018-10-05T22:16:30.727Z,9
2018-10-05T22:21:33.173Z,17
2018-10-05T22:26:35.649Z,11
2018-10-05T22:31:38.119Z,11
2018-10-05T22:36:40.555Z,11
2018-10-05T22:41:42.990Z,14
2018-10-05T22:46:45.449Z,12
2018-10-05T22:51:47.902Z,13
2018-10-05T22:56:50.371Z,14
2018-10-05T23:01:52.846Z,16
2018-10-05T23:06:55.292Z,13
2018-10-05T23:11:57.733Z,12
2018-10-05T23:17:00.220Z,15
2018-10-05T23:22:02.655Z,19
2018-10-05T23:27:05.112Z,13
2018-10-05T23:32:07.582Z,16
2018-10-05T23:37:10.040Z,16
2018-10-05T23:42:12.504Z,15
2018-10-05T23:47:14.950Z,14
2018-10-05T23:52:17.443Z,17
2018-10-05T23:57:19.872Z,12
